Archival Weather

Tokyo Intl

Tokyo Intl, Japan (RJTT)

Report from: Friday, June 24, 2022 2:00 AM JST
Current time: Tuesday, August 16, 2022 11:12 AM JST

Current weather
Weather history
Weather forecast

Temperature23.0°C (73.4°F)
Dew point22.0°C (71.6°F)
Winds 11 kts (5.7 m/s, 12.7 mph) South (170°)
Visibility6.2 mi. (10 km)
Clouds Few clouds 500 ft. (152 m)
Few clouds 500 ft. (152 m)
Scattered clouds 700 ft. (213 m)
Ceiling: Broken clouds 800 ft. (244 m)
Broken clouds 1,200 ft. (366 m)
Altimeter29.80 in.Hg (1009 mB)
Relative humidity94 %
Density altitude1,430 ft. (436 m)
Flight conditions Instrument Meteorological Conditions
Raw dataRJTT 231700Z 17011KT 9999 FEW005 SCT007 BKN012 23/22 Q1009 TEMPO FEW005 BKN008 RMK 1ST005 4ST007 5CU012 A2980
An error has occurred. This application may no longer respond until reloaded. Reload 🗙